createdAt,value
2018-11-29T00:01:52.663Z,1.57
2018-11-29T00:04:22.044Z,1.30
2018-11-29T00:07:06.788Z,1.60
2018-11-29T00:09:45.569Z,1.30
2018-11-29T00:12:15.369Z,1.72
2018-11-29T00:14:45.203Z,1.30
2018-11-29T00:17:17.060Z,1.10
2018-11-29T00:19:47.167Z,1.25
2018-11-29T00:22:16.535Z,1.02
2018-11-29T00:24:54.626Z,1.33
2018-11-29T00:27:28.584Z,1.30
2018-11-29T00:29:58.086Z,1.52
2018-11-29T00:32:32.195Z,1.50
2018-11-29T00:35:01.827Z,1.40
2018-11-29T00:37:31.876Z,1.60
2018-11-29T00:40:02.693Z,1.30
2018-11-29T00:42:32.778Z,1.32
2018-11-29T00:45:03.131Z,1.40
2018-11-29T00:47:33.719Z,1.40
2018-11-29T00:50:05.076Z,1.50
2018-11-29T00:55:49.167Z,1.37
2018-11-29T00:58:27.645Z,1.72
2018-11-29T01:01:00.757Z,1.52
2018-11-29T01:03:37.754Z,1.17
2018-11-29T01:06:08.167Z,1.40
2018-11-29T01:08:44.992Z,0.95
2018-11-29T01:11:14.589Z,0.95
2018-11-29T01:13:44.619Z,1.32
2018-11-29T01:16:28.324Z,1.10
2018-11-29T01:18:57.705Z,1.12
2018-11-29T01:21:27.252Z,2.00
2018-11-29T01:24:03.314Z,1.65
2018-11-29T01:26:33.271Z,0.93
2018-11-29T01:35:28.278Z,1.25
2018-11-29T01:37:58.909Z,3.05
2018-11-29T01:40:29.731Z,0.90
2018-11-29T01:42:59.275Z,2.05
2018-11-29T01:45:28.699Z,0.88
2018-11-29T01:51:22.140Z,0.80
2018-11-29T01:53:52.855Z,0.60
2018-11-29T01:56:22.553Z,1.05
2018-11-29T01:59:00.623Z,1.02
2018-11-29T02:01:30.375Z,1.30
2018-11-29T02:04:00.119Z,0.90
2018-11-29T02:06:36.655Z,1.22
2018-11-29T02:09:17.701Z,1.50
2018-11-29T02:11:50.350Z,0.70
2018-11-29T02:14:20.644Z,0.80
2018-11-29T02:16:57.320Z,0.80
2018-11-29T02:19:27.867Z,0.70
2018-11-29T02:21:58.455Z,0.70
2018-11-29T02:24:27.899Z,0.82
2018-11-29T02:26:57.819Z,0.82
2018-11-29T02:29:27.626Z,0.82
2018-11-29T02:32:00.934Z,0.90
2018-11-29T02:34:30.499Z,0.90
2018-11-29T02:37:00.018Z,0.93
2018-11-29T02:39:30.334Z,0.95
2018-11-29T02:41:59.762Z,1.37
2018-11-29T02:44:29.133Z,0.80
2018-11-29T02:46:59.132Z,2.10
2018-11-29T02:49:29.851Z,1.10
2018-11-29T02:51:59.379Z,2.10
2018-11-29T02:54:34.043Z,1.50
2018-11-29T02:57:04.128Z,0.95
2018-11-29T02:59:34.319Z,0.70
2018-11-29T03:02:04.507Z,1.40
2018-11-29T03:04:34.838Z,1.30
2018-11-29T03:07:04.715Z,1.85
2018-11-29T03:09:34.111Z,1.37
2018-11-29T03:15:11.023Z,0.67
2018-11-29T03:17:41.027Z,1.03
2018-11-29T03:20:12.434Z,0.68
2018-11-29T03:22:41.937Z,0.80
2018-11-29T03:25:28.668Z,1.00
2018-11-29T03:27:58.067Z,1.00
2018-11-29T03:30:27.492Z,0.80
2018-11-29T03:32:56.893Z,1.10
2018-11-29T03:35:26.261Z,0.90
2018-11-29T03:37:56.236Z,0.95
2018-11-29T03:40:25.656Z,1.27
2018-11-29T03:45:36.016Z,0.60
2018-11-29T03:48:05.435Z,0.88
2018-11-29T03:50:41.248Z,0.80
2018-11-29T03:53:10.633Z,1.02
2018-11-29T03:55:40.196Z,1.20
2018-11-29T03:58:17.137Z,0.68
2018-11-29T04:00:46.477Z,0.80
2018-11-29T04:03:15.896Z,1.17
2018-11-29T04:05:45.319Z,0.60
2018-11-29T04:08:14.684Z,0.50
2018-11-29T04:10:51.837Z,0.90
2018-11-29T04:13:21.005Z,0.53
2018-11-29T04:15:50.930Z,0.72
2018-11-29T04:18:25.503Z,0.80
2018-11-29T04:20:55.411Z,1.05
2018-11-29T04:23:25.324Z,0.70
2018-11-29T04:26:01.039Z,0.60
2018-11-29T04:28:30.388Z,0.70
2018-11-29T04:30:59.770Z,0.77
2018-11-29T04:33:29.202Z,0.80
2018-11-29T04:35:58.596Z,0.73
2018-11-29T04:38:28.036Z,0.80
2018-11-29T04:41:04.508Z,0.80
2018-11-29T04:43:58.279Z,0.90
2018-11-29T04:46:52.073Z,0.90
2018-11-29T04:49:21.862Z,0.80
2018-11-29T04:51:51.290Z,0.70
2018-11-29T04:54:21.732Z,0.70
2018-11-29T04:56:51.240Z,1.10
2018-11-29T04:59:20.764Z,1.37
2018-11-29T05:01:58.912Z,0.87
2018-11-29T05:04:28.917Z,0.72
2018-11-29T05:06:58.335Z,1.07
2018-11-29T05:09:27.891Z,0.70
2018-11-29T05:11:57.801Z,1.07
2018-11-29T05:14:27.327Z,1.23
2018-11-29T05:16:57.437Z,0.80
2018-11-29T05:19:26.922Z,0.80
2018-11-29T05:21:56.283Z,0.60
2018-11-29T05:24:25.664Z,0.60
2018-11-29T05:26:55.141Z,1.83
2018-11-29T05:29:25.059Z,3.15
2018-11-29T05:32:02.503Z,3.22
2018-11-29T05:34:31.958Z,2.80
2018-11-29T05:37:01.788Z,9.13
2018-11-29T05:39:32.232Z,14.05
2018-11-29T05:42:01.905Z,7.95
2018-11-29T05:44:31.251Z,18.60
2018-11-29T05:47:00.729Z,10.55
2018-11-29T05:49:30.211Z,9.08
2018-11-29T05:55:00.760Z,12.63
2018-11-29T05:57:30.160Z,7.70
2018-11-29T06:00:09.849Z,10.53
2018-11-29T06:08:44.436Z,9.13
2018-11-29T06:13:53.730Z,7.63
2018-11-29T06:16:23.157Z,7.58
2018-11-29T06:18:59.738Z,7.47
2018-11-29T06:21:29.679Z,7.15
2018-11-29T06:23:59.068Z,5.97
2018-11-29T06:26:36.394Z,8.27
2018-11-29T06:29:05.919Z,8.13
2018-11-29T06:31:35.332Z,6.53
2018-11-29T06:34:09.343Z,7.27
2018-11-29T06:36:38.695Z,6.62
2018-11-29T06:39:09.221Z,6.97
2018-11-29T06:41:45.864Z,7.60
2018-11-29T06:44:15.219Z,7.83
2018-11-29T06:46:45.144Z,10.05
2018-11-29T06:49:14.661Z,6.40
2018-11-29T06:51:44.365Z,7.25
2018-11-29T06:54:13.624Z,6.22
2018-11-29T06:56:42.992Z,6.97
2018-11-29T06:59:12.476Z,3.55
2018-11-29T07:01:41.921Z,5.20
2018-11-29T07:04:11.531Z,7.05
2018-11-29T07:06:40.951Z,6.95
2018-11-29T07:09:10.866Z,5.33
2018-11-29T07:11:42.444Z,7.47
2018-11-29T07:14:11.885Z,6.47
2018-11-29T07:16:41.272Z,5.22
2018-11-29T07:19:20.657Z,5.97
2018-11-29T07:21:53.058Z,3.45
2018-11-29T07:24:23.311Z,6.58
2018-11-29T07:26:53.335Z,4.17
2018-11-29T07:29:23.296Z,4.80
2018-11-29T07:31:52.907Z,6.27
2018-11-29T07:40:36.574Z,5.17
2018-11-29T07:43:07.064Z,4.53
2018-11-29T07:45:46.923Z,4.58
2018-11-29T07:48:16.427Z,3.58
2018-11-29T07:56:38.780Z,4.37
2018-11-29T07:59:08.540Z,3.90
2018-11-29T08:01:48.426Z,5.17
2018-11-29T08:04:17.828Z,2.97
2018-11-29T08:06:47.251Z,4.50
2018-11-29T08:09:17.557Z,4.70
2018-11-29T08:11:47.560Z,3.33
2018-11-29T08:14:16.928Z,4.10
2018-11-29T08:16:51.806Z,3.27
2018-11-29T08:19:21.211Z,4.92
2018-11-29T08:21:50.641Z,3.67
2018-11-29T08:24:20.240Z,3.77
2018-11-29T08:26:49.640Z,3.67
2018-11-29T08:29:19.047Z,4.77
2018-11-29T08:31:48.991Z,3.92
2018-11-29T08:34:18.358Z,3.40
2018-11-29T08:36:47.779Z,3.20
2018-11-29T08:39:17.723Z,4.35
2018-11-29T08:41:47.628Z,4.78
2018-11-29T08:44:17.583Z,4.70
2018-11-29T08:46:47.091Z,5.70
2018-11-29T08:49:17.020Z,3.12
2018-11-29T08:51:53.500Z,3.10
2018-11-29T08:54:22.930Z,3.53
2018-11-29T08:56:58.363Z,3.98
2018-11-29T08:59:27.719Z,4.20
2018-11-29T09:01:57.088Z,2.60
2018-11-29T09:04:35.899Z,4.47
2018-11-29T09:07:05.015Z,2.53
2018-11-29T09:09:34.407Z,2.12
2018-11-29T09:14:42.726Z,1.60
2018-11-29T09:17:12.067Z,1.87
2018-11-29T09:19:43.995Z,2.00
2018-11-29T09:22:13.436Z,2.90
2018-11-29T09:24:43.017Z,2.80
2018-11-29T09:33:23.063Z,3.90
2018-11-29T09:35:52.482Z,5.03
2018-11-29T09:38:21.885Z,4.50
2018-11-29T09:40:59.872Z,6.15
2018-11-29T09:43:29.281Z,3.00
2018-11-29T09:45:58.737Z,5.25
2018-11-29T09:48:32.640Z,4.67
2018-11-29T09:51:02.039Z,4.40
2018-11-29T09:53:32.917Z,5.22
2018-11-29T09:56:01.155Z,2.95
2018-11-29T09:58:30.751Z,2.98
2018-11-29T10:01:00.215Z,5.55
2018-11-29T10:03:29.636Z,5.13
2018-11-29T10:05:59.574Z,4.78
2018-11-29T10:08:28.956Z,6.27
2018-11-29T10:10:58.329Z,2.43
2018-11-29T10:13:28.231Z,2.52
2018-11-29T10:15:57.592Z,4.42
2018-11-29T10:21:38.413Z,6.12
2018-11-29T10:24:08.397Z,3.83
2018-11-29T10:26:37.772Z,2.33
2018-11-29T10:29:07.181Z,5.70
2018-11-29T10:31:36.513Z,5.08
2018-11-29T10:34:05.731Z,3.80
2018-11-29T10:36:35.300Z,3.13
2018-11-29T10:39:06.619Z,2.77
2018-11-29T10:41:36.094Z,2.47
2018-11-29T10:44:05.566Z,3.40
2018-11-29T10:46:35.104Z,3.72
2018-11-29T10:49:04.614Z,3.07
2018-11-29T10:51:34.046Z,2.90
2018-11-29T10:54:03.836Z,2.57
2018-11-29T10:56:33.291Z,2.30
2018-11-29T10:59:02.785Z,5.65
2018-11-29T11:01:36.419Z,3.30
2018-11-29T11:04:06.792Z,3.42
2018-11-29T11:06:46.814Z,4.03
2018-11-29T11:09:17.091Z,4.10
2018-11-29T11:11:47.502Z,3.03
2018-11-29T11:14:16.884Z,3.40
2018-11-29T11:16:46.332Z,3.00
2018-11-29T11:19:15.787Z,2.67
2018-11-29T11:21:45.316Z,3.55
2018-11-29T11:24:14.701Z,2.90
2018-11-29T11:26:44.153Z,3.17
2018-11-29T11:29:13.532Z,4.03
2018-11-29T11:31:43.164Z,4.40
2018-11-29T11:34:13.134Z,3.57
2018-11-29T11:36:43.028Z,2.45
2018-11-29T11:39:12.210Z,2.57
2018-11-29T11:41:41.592Z,3.90
2018-11-29T11:44:10.973Z,2.57
2018-11-29T11:46:40.371Z,2.10
2018-11-29T11:49:09.835Z,3.33
2018-11-29T11:51:39.168Z,3.50
2018-11-29T11:54:08.669Z,2.00
2018-11-29T11:56:38.082Z,2.47
2018-11-29T12:02:18.187Z,2.43
2018-11-29T12:04:48.674Z,2.40
2018-11-29T12:07:16.989Z,2.97
2018-11-29T12:09:47.508Z,2.50
2018-11-29T12:12:17.147Z,3.40
2018-11-29T12:14:46.670Z,2.25
2018-11-29T12:17:17.166Z,3.30
2018-11-29T12:19:46.797Z,1.60
2018-11-29T12:22:16.288Z,2.47
2018-11-29T12:24:45.375Z,3.00
2018-11-29T12:27:14.721Z,2.77
2018-11-29T12:29:44.109Z,3.07
2018-11-29T12:32:24.026Z,2.37
2018-11-29T12:34:54.712Z,4.58
2018-11-29T12:37:26.296Z,6.20
2018-11-29T12:39:56.433Z,4.67
2018-11-29T12:45:09.121Z,2.55
2018-11-29T12:47:39.940Z,3.67
2018-11-29T12:50:15.204Z,6.22
2018-11-29T12:52:53.695Z,2.67
2018-11-29T12:55:24.933Z,2.30
2018-11-29T12:58:05.504Z,2.97
2018-11-29T13:00:30.847Z,3.00
2018-11-29T13:03:12.067Z,4.80
2018-11-29T13:09:01.744Z,1.60
2018-11-29T13:11:34.042Z,2.15
2018-11-29T13:14:03.941Z,2.70
2018-11-29T13:16:33.381Z,2.90
2018-11-29T13:21:43.681Z,2.17
2018-11-29T13:24:13.135Z,3.10
2018-11-29T13:26:42.741Z,1.73
2018-11-29T13:29:12.435Z,1.80
2018-11-29T13:31:41.866Z,2.17
2018-11-29T13:34:11.291Z,2.60
2018-11-29T13:36:50.131Z,1.92
2018-11-29T13:39:19.559Z,1.55
2018-11-29T13:41:49.083Z,1.80
2018-11-29T13:44:18.585Z,1.77
2018-11-29T13:46:48.094Z,2.00
2018-11-29T13:49:17.556Z,2.17
2018-11-29T13:51:47.137Z,1.82
2018-11-29T13:54:16.714Z,2.77
2018-11-29T13:56:46.171Z,1.50
2018-11-29T13:59:15.699Z,1.47
2018-11-29T14:04:46.707Z,2.33
2018-11-29T14:07:16.228Z,1.70
2018-11-29T14:10:00.428Z,1.77
2018-11-29T14:12:29.937Z,1.40
2018-11-29T14:15:00.093Z,1.73
2018-11-29T14:17:42.385Z,2.73
2018-11-29T14:20:12.766Z,1.93
2018-11-29T14:22:45.905Z,1.07
2018-11-29T14:25:16.241Z,1.67
2018-11-29T14:28:00.710Z,1.07
2018-11-29T14:30:31.001Z,1.40
2018-11-29T14:39:01.192Z,1.47
2018-11-29T14:41:31.324Z,1.57
2018-11-29T14:44:01.771Z,2.77
2018-11-29T14:46:31.224Z,1.50
2018-11-29T14:52:00.268Z,1.57
2018-11-29T14:54:30.349Z,1.75
2018-11-29T14:57:00.456Z,1.60
2018-11-29T14:59:30.236Z,2.43
2018-11-29T15:02:00.416Z,1.90
2018-11-29T15:04:30.416Z,2.75
2018-11-29T15:07:00.522Z,1.60
2018-11-29T15:09:30.187Z,1.72
2018-11-29T15:11:59.834Z,2.50
2018-11-29T15:14:30.026Z,1.42
2018-11-29T15:16:59.719Z,2.33
2018-11-29T15:19:29.154Z,1.83
2018-11-29T15:21:59.286Z,1.70
2018-11-29T15:24:28.969Z,1.47
2018-11-29T15:26:58.583Z,1.83
2018-11-29T15:29:32.110Z,1.82
2018-11-29T15:32:02.186Z,3.33
2018-11-29T15:34:35.455Z,1.43
2018-11-29T15:37:04.993Z,1.70
2018-11-29T15:39:34.580Z,1.97
2018-11-29T15:42:04.082Z,1.83
2018-11-29T15:44:33.548Z,2.00
2018-11-29T15:47:03.010Z,2.07
2018-11-29T15:49:32.569Z,1.87
2018-11-29T15:52:02.179Z,1.70
2018-11-29T15:54:32.281Z,1.72
2018-11-29T15:57:01.776Z,1.70
2018-11-29T15:59:31.299Z,2.17
2018-11-29T16:02:00.844Z,1.67
2018-11-29T16:07:05.525Z,1.65
2018-11-29T16:09:35.084Z,1.77
2018-11-29T16:14:39.219Z,1.40
2018-11-29T16:17:11.818Z,1.70
2018-11-29T16:19:41.251Z,1.42
2018-11-29T16:22:10.911Z,1.63
2018-11-29T16:24:40.552Z,1.87
2018-11-29T16:29:49.292Z,1.50
2018-11-29T16:32:18.859Z,1.77
2018-11-29T16:34:48.516Z,1.98
2018-11-29T16:37:18.704Z,2.77
2018-11-29T16:39:48.211Z,2.02
2018-11-29T16:42:17.725Z,2.37
2018-11-29T16:44:47.301Z,2.70
2018-11-29T16:47:16.983Z,1.40
2018-11-29T16:49:46.628Z,1.72
2018-11-29T16:52:16.807Z,2.67
2018-11-29T16:54:46.335Z,3.93
2018-11-29T16:57:16.042Z,1.90
2018-11-29T16:59:45.960Z,1.57
2018-11-29T17:04:50.607Z,1.33
2018-11-29T17:07:20.438Z,1.17
2018-11-29T17:09:51.151Z,1.20
2018-11-29T17:12:22.202Z,1.03
2018-11-29T17:14:52.528Z,1.27
2018-11-29T17:17:22.270Z,1.70
2018-11-29T17:19:51.997Z,1.50
2018-11-29T17:22:21.774Z,1.10
2018-11-29T17:24:51.504Z,1.67
2018-11-29T17:27:21.178Z,1.13
2018-11-29T17:29:51.415Z,2.15
2018-11-29T17:32:21.763Z,1.90
2018-11-29T17:34:51.402Z,1.10
2018-11-29T17:37:24.223Z,1.67
2018-11-29T17:39:53.994Z,1.20
2018-11-29T17:42:23.643Z,1.30
2018-11-29T17:44:53.373Z,1.30
2018-11-29T17:47:23.102Z,1.10
2018-11-29T17:49:53.358Z,1.00
2018-11-29T17:52:22.621Z,1.37
2018-11-29T17:54:52.492Z,2.53
2018-11-29T17:57:22.702Z,1.90
2018-11-29T17:59:53.484Z,1.20
2018-11-29T18:02:23.467Z,1.98
2018-11-29T18:04:53.252Z,1.53
2018-11-29T18:07:26.832Z,2.25
2018-11-29T18:09:56.474Z,1.50
2018-11-29T18:12:26.324Z,2.23
2018-11-29T18:14:56.155Z,3.87
2018-11-29T18:17:26.543Z,1.67
2018-11-29T18:19:56.287Z,3.57
2018-11-29T18:22:26.645Z,3.93
2018-11-29T18:24:56.289Z,4.77
2018-11-29T18:27:25.875Z,2.35
2018-11-29T18:35:15.947Z,3.15
2018-11-29T18:37:45.530Z,5.65
2018-11-29T18:40:16.870Z,7.70
2018-11-29T18:42:47.539Z,7.43
2018-11-29T18:45:17.866Z,6.03
2018-11-29T18:53:43.050Z,4.35
2018-11-29T18:56:12.581Z,4.23
2018-11-29T18:58:42.637Z,3.00
2018-11-29T19:01:12.174Z,3.63
2018-11-29T19:03:41.794Z,3.40
2018-11-29T19:06:11.306Z,4.57
2018-11-29T19:08:40.819Z,4.03
2018-11-29T19:11:10.432Z,3.30
2018-11-29T19:13:39.941Z,6.00
2018-11-29T19:16:09.616Z,5.00
2018-11-29T19:18:39.114Z,3.80
2018-11-29T19:21:08.699Z,2.17
2018-11-29T19:23:38.240Z,3.15
2018-11-29T19:26:07.816Z,2.92
2018-11-29T19:28:37.498Z,2.77
2018-11-29T19:31:07.139Z,1.73
2018-11-29T19:33:37.122Z,1.77
2018-11-29T20:03:24.603Z,3.47
2018-11-29T20:05:54.478Z,1.97
2018-11-29T20:08:24.130Z,3.23
2018-11-29T20:11:02.013Z,2.10
2018-11-29T20:16:15.663Z,2.47
2018-11-29T20:18:45.615Z,2.55
2018-11-29T20:21:23.567Z,2.77
2018-11-29T20:23:53.272Z,2.37
2018-11-29T20:26:22.886Z,3.83
2018-11-29T20:28:52.328Z,2.03
2018-11-29T20:31:21.892Z,3.00
2018-11-29T20:33:52.276Z,2.40
2018-11-29T20:36:22.249Z,3.05
2018-11-29T20:39:07.270Z,2.20
2018-11-29T20:41:39.212Z,3.40
2018-11-29T20:44:09.234Z,3.27
2018-11-29T20:46:39.652Z,2.20
2018-11-29T20:49:09.360Z,4.57
2018-11-29T20:51:39.554Z,3.72
2018-11-29T20:54:15.137Z,3.72
2018-11-29T20:56:44.891Z,6.10
2018-11-29T20:59:15.146Z,2.22
2018-11-29T21:01:46.673Z,2.35
2018-11-29T21:04:16.315Z,2.67
2018-11-29T21:06:46.160Z,2.07
2018-11-29T21:09:16.640Z,2.33
2018-11-29T21:11:47.910Z,1.70
2018-11-29T21:14:16.976Z,2.20
2018-11-29T21:16:51.640Z,2.57
2018-11-29T21:19:22.030Z,2.50
2018-11-29T21:21:51.791Z,2.08
2018-11-29T21:24:25.569Z,2.60
2018-11-29T21:26:55.821Z,2.77
2018-11-29T21:29:25.654Z,2.30
2018-11-29T21:31:58.112Z,1.92
2018-11-29T21:34:27.691Z,2.50
2018-11-29T21:36:57.593Z,1.73
2018-11-29T21:39:32.591Z,2.55
2018-11-29T21:42:02.235Z,2.40
2018-11-29T21:44:33.175Z,1.90
2018-11-29T21:47:07.115Z,2.37
2018-11-29T21:49:37.475Z,2.10
2018-11-29T21:52:07.573Z,2.57
2018-11-29T21:54:38.662Z,2.45
2018-11-29T21:57:08.476Z,2.40
2018-11-29T21:59:39.634Z,1.40
2018-11-29T22:02:11.313Z,1.40
2018-11-29T22:04:41.239Z,1.57
2018-11-29T22:07:11.078Z,1.40
2018-11-29T22:09:40.943Z,2.80
2018-11-29T22:12:10.754Z,1.40
2018-11-29T22:14:40.705Z,1.77
2018-11-29T22:17:10.560Z,2.43
2018-11-29T22:19:41.346Z,2.03
2018-11-29T22:22:11.324Z,2.20
2018-11-29T22:25:56.175Z,1.63
2018-11-29T22:28:31.498Z,2.60
2018-11-29T22:31:01.850Z,1.50
2018-11-29T22:33:31.493Z,3.33
2018-11-29T22:36:02.140Z,3.30
2018-11-29T22:38:31.596Z,2.73
2018-11-29T22:41:01.242Z,2.10
2018-11-29T22:43:31.047Z,1.50
2018-11-29T22:46:00.986Z,1.57
2018-11-29T22:48:30.629Z,3.13
2018-11-29T22:51:00.322Z,1.60
2018-11-29T22:53:29.788Z,3.07
2018-11-29T22:56:05.244Z,1.60
2018-11-29T22:58:37.494Z,1.62
2018-11-29T23:01:18.304Z,2.00
2018-11-29T23:03:47.832Z,3.40
2018-11-29T23:06:17.195Z,2.20
2018-11-29T23:08:51.931Z,2.30
2018-11-29T23:11:21.410Z,1.60
2018-11-29T23:13:50.888Z,2.23
2018-11-29T23:16:22.649Z,1.62
2018-11-29T23:18:52.753Z,1.50
2018-11-29T23:21:22.551Z,1.93
2018-11-29T23:23:57.731Z,1.73
2018-11-29T23:26:27.327Z,1.47
2018-11-29T23:28:56.896Z,2.10
2018-11-29T23:31:27.352Z,1.20
2018-11-29T23:33:56.828Z,1.80
2018-11-29T23:36:26.241Z,1.55
2018-11-29T23:39:02.232Z,1.40
2018-11-29T23:41:31.528Z,1.60
2018-11-29T23:44:01.076Z,1.47
2018-11-29T23:46:34.974Z,1.55
2018-11-29T23:49:04.445Z,1.37
2018-11-29T23:51:34.294Z,1.20
2018-11-29T23:54:04.655Z,1.50
2018-11-29T23:56:34.025Z,1.57
2018-11-29T23:59:05.158Z,1.47
